createdAt,value
2017-03-02T00:08:57.216Z,0
2017-03-02T00:18:57.219Z,0
2017-03-02T00:28:57.065Z,0
2017-03-02T00:38:57.362Z,0
2017-03-02T00:48:57.164Z,0
2017-03-02T00:58:57.175Z,0
2017-03-02T01:08:57.299Z,0
2017-03-02T01:18:57.168Z,0
2017-03-02T01:28:57.168Z,0
2017-03-02T01:38:57.060Z,0
2017-03-02T01:48:57.200Z,0
2017-03-02T01:58:57.135Z,0
2017-03-02T02:08:57.054Z,0
2017-03-02T02:18:57.143Z,0
2017-03-02T02:28:57.176Z,0
2017-03-02T02:38:57.160Z,0
2017-03-02T02:48:57.136Z,0
2017-03-02T02:58:57.235Z,0
2017-03-02T03:08:57.149Z,0
2017-03-02T03:18:57.198Z,0
2017-03-02T03:28:57.162Z,0
2017-03-02T03:38:57.217Z,0
2017-03-02T03:48:57.183Z,0
2017-03-02T03:58:57.236Z,0
2017-03-02T04:08:57.259Z,0
2017-03-02T04:18:57.254Z,0
2017-03-02T04:28:57.257Z,0
2017-03-02T04:38:57.189Z,0
2017-03-02T04:48:57.283Z,0
2017-03-02T04:58:57.212Z,0
2017-03-02T05:08:57.236Z,0
2017-03-02T05:18:57.231Z,0
2017-03-02T05:28:57.316Z,0
2017-03-02T05:38:57.273Z,0
2017-03-02T05:48:57.346Z,0
2017-03-02T05:58:57.254Z,0
2017-03-02T06:08:57.334Z,0
2017-03-02T06:18:57.343Z,10
2017-03-02T06:28:57.409Z,25
2017-03-02T06:38:57.307Z,35
2017-03-02T06:48:57.293Z,45
2017-03-02T06:58:57.352Z,45
2017-03-02T07:08:57.311Z,65
2017-03-02T07:19:07.017Z,55
2017-03-02T07:28:57.341Z,70
2017-03-02T07:38:57.448Z,75
2017-03-02T07:48:57.384Z,80
2017-03-02T07:58:57.463Z,25
2017-03-02T08:08:57.355Z,55
2017-03-02T08:18:57.344Z,70
2017-03-02T08:28:57.424Z,110
2017-03-02T08:38:57.375Z,110
2017-03-02T08:48:57.375Z,140
2017-03-02T08:58:57.379Z,95
2017-03-02T09:08:57.438Z,100
2017-03-02T09:18:57.390Z,85
2017-03-02T09:28:57.500Z,115
2017-03-02T09:38:57.468Z,140
2017-03-02T09:48:57.444Z,185
2017-03-02T09:58:57.439Z,225
2017-03-02T10:08:57.540Z,240
2017-03-02T10:18:57.444Z,105
2017-03-02T10:28:57.691Z,75
2017-03-02T10:38:57.451Z,90
2017-03-02T10:48:57.472Z,75
2017-03-02T10:58:57.493Z,145
2017-03-02T11:08:57.547Z,210
2017-03-02T11:18:57.514Z,250
2017-03-02T11:28:57.529Z,305
2017-03-02T11:38:57.542Z,230
2017-03-02T11:48:57.512Z,175
2017-03-02T11:58:57.860Z,325
2017-03-02T12:08:57.512Z,270
2017-03-02T12:18:57.564Z,170
2017-03-02T12:28:57.622Z,140
2017-03-02T12:38:57.597Z,250
2017-03-02T12:48:57.552Z,240
2017-03-02T12:58:57.750Z,245
2017-03-02T13:08:57.786Z,235
2017-03-02T13:18:57.636Z,255
2017-03-02T13:28:57.580Z,255
2017-03-02T13:38:57.597Z,140
2017-03-02T13:48:57.835Z,160
2017-03-02T13:58:57.673Z,205
2017-03-02T14:08:57.873Z,160
2017-03-02T14:18:58.420Z,175
2017-03-02T14:28:57.758Z,220
2017-03-02T14:38:57.825Z,150
2017-03-02T14:48:57.767Z,150
2017-03-02T14:58:58.745Z,65
2017-03-02T15:08:57.829Z,170
2017-03-02T15:18:57.747Z,85
2017-03-02T15:28:57.838Z,80
2017-03-02T15:38:57.777Z,50
2017-03-02T15:48:57.784Z,45
2017-03-02T15:58:58.891Z,15
2017-03-02T16:08:57.910Z,60
2017-03-02T16:18:57.750Z,55
2017-03-02T16:28:57.873Z,30
2017-03-02T16:38:57.823Z,35
2017-03-02T16:48:57.800Z,15
2017-03-02T16:58:57.811Z,5
2017-03-02T17:08:57.857Z,5
2017-03-02T17:18:57.787Z,0
2017-03-02T17:28:57.852Z,0
2017-03-02T17:38:57.798Z,0
2017-03-02T17:48:58.088Z,0
2017-03-02T17:58:57.850Z,0
2017-03-02T18:08:58.057Z,0
2017-03-02T18:18:57.919Z,0
2017-03-02T18:28:57.877Z,0
2017-03-02T18:38:57.887Z,0
2017-03-02T18:48:57.891Z,0
2017-03-02T18:58:57.883Z,0
2017-03-02T19:08:57.906Z,0
2017-03-02T19:18:57.953Z,0
2017-03-02T19:28:57.939Z,0
2017-03-02T19:38:57.948Z,0
2017-03-02T19:48:57.915Z,0
2017-03-02T19:58:58.032Z,0
2017-03-02T20:08:57.933Z,0
2017-03-02T20:18:58.090Z,0
2017-03-02T20:28:57.933Z,0
2017-03-02T20:38:58.033Z,0
2017-03-02T20:48:58.087Z,0
2017-03-02T20:58:57.996Z,0
2017-03-02T21:08:58.000Z,0
2017-03-02T21:18:58.021Z,0
2017-03-02T21:28:58.076Z,0
2017-03-02T21:38:58.054Z,0
2017-03-02T21:48:58.154Z,0
2017-03-02T21:58:58.934Z,0
2017-03-02T22:08:58.567Z,0
2017-03-02T22:18:58.710Z,0
2017-03-02T22:28:58.427Z,0
2017-03-02T22:38:58.679Z,0
2017-03-02T22:48:58.255Z,0
2017-03-02T22:58:58.477Z,0
2017-03-02T23:08:58.127Z,0
2017-03-02T23:18:58.307Z,0
2017-03-02T23:28:58.190Z,0
2017-03-02T23:38:58.209Z,0
2017-03-02T23:48:58.234Z,0
2017-03-02T23:58:58.209Z,0
